Time;durP1;ratioP1;P1;durP2;ratioP2;P2;SDS_P1;SDS_P2;PMS_P1;PMS_P2;Temp;Humidity;BMP_temperature;BMP_pressure;BME280_temperature;BME280_humidity;BME280_pressure;Samples;Min_cycle;Max_cycle;Signal;HPM_P1;HPM_P2
2023/11/16 00:02:27;;;;;;;1.80;1.70;;;3.30;99.90;;;;;;5057481;28;20041;-62
2023/11/16 00:04:54;;;;;;;1.85;1.50;;;3.30;99.90;;;;;;5053078;28;20491;-61
2023/11/16 00:07:23;;;;;;;5.65;1.63;;;3.30;99.90;;;;;;5048513;28;20045;-60
2023/11/16 00:09:51;;;;;;;3.75;1.50;;;3.30;99.90;;;;;;5053977;28;20051;-60
2023/11/16 00:12:20;;;;;;;3.28;1.50;;;3.30;99.90;;;;;;5050991;28;20459;-61
2023/11/16 00:14:47;;;;;;;2.60;1.50;;;3.40;99.90;;;;;;5051724;28;20045;-63
2023/11/16 00:17:14;;;;;;;2.22;1.35;;;3.30;99.90;;;;;;5056221;28;20041;-63
2023/11/16 00:19:42;;;;;;;1.30;0.93;;;3.30;99.90;;;;;;5052309;28;20045;-61
2023/11/16 00:22:10;;;;;;;4.13;1.70;;;3.30;99.90;;;;;;5058331;28;20044;-62
2023/11/16 00:24:37;;;;;;;3.33;1.40;;;3.30;99.90;;;;;;5051500;28;20037;-66
2023/11/16 00:27:05;;;;;;;1.75;1.58;;;3.20;99.90;;;;;;5050635;28;20037;-60
2023/11/16 00:29:32;;;;;;;1.65;1.45;;;3.10;99.90;;;;;;5033373;28;20127;-61
2023/11/16 00:31:59;;;;;;;2.90;2.65;;;3.10;99.90;;;;;;5054600;28;20053;-60
2023/11/16 00:34:26;;;;;;;2.30;1.80;;;3.10;99.90;;;;;;5051402;28;20037;-61
2023/11/16 00:36:54;;;;;;;2.55;1.90;;;3.00;99.90;;;;;;5055522;28;20479;-60
2023/11/16 00:39:20;;;;;;;2.17;1.48;;;3.00;99.90;;;;;;5031848;28;20053;-61
2023/11/16 00:41:48;;;;;;;2.40;1.42;;;3.00;99.90;;;;;;5054773;28;20041;-70
2023/11/16 00:44:19;;;;;;;1.30;1.20;;;2.90;99.90;;;;;;5049126;28;20049;-60
2023/11/16 00:46:48;;;;;;;1.65;1.55;;;2.90;99.90;;;;;;5052909;28;20033;-61
2023/11/16 00:49:16;;;;;;;2.30;1.63;;;2.90;99.90;;;;;;5055920;28;20041;-61
2023/11/16 00:51:43;;;;;;;1.83;1.58;;;2.90;99.90;;;;;;5049415;28;20120;-61
2023/11/16 00:54:13;;;;;;;2.45;2.10;;;3.00;99.90;;;;;;5046066;28;20049;-60
2023/11/16 00:56:40;;;;;;;3.70;1.98;;;3.00;99.90;;;;;;5034112;28;20052;-64
2023/11/16 00:59:10;;;;;;;2.92;1.98;;;3.00;99.90;;;;;;5032050;28;20033;-64
2023/11/16 01:01:39;;;;;;;2.03;1.48;;;3.00;99.90;;;;;;5053971;28;20063;-60
2023/11/16 01:04:09;;;;;;;1.55;1.45;;;3.10;99.90;;;;;;5048884;28;20045;-61
2023/11/16 01:06:38;;;;;;;2.00;1.73;;;3.00;99.90;;;;;;5049752;28;20045;-63
2023/11/16 01:09:09;;;;;;;3.17;2.58;;;3.10;99.90;;;;;;5050395;28;20376;-60
2023/11/16 01:11:39;;;;;;;3.60;2.30;;;3.10;99.90;;;;;;5046032;28;20045;-62
2023/11/16 01:14:08;;;;;;;2.35;2.00;;;3.10;99.90;;;;;;5059637;28;20037;-62
2023/11/16 01:16:41;;;;;;;3.00;2.47;;;3.10;99.90;;;;;;5034506;28;20103;-67
2023/11/16 01:19:10;;;;;;;3.83;2.28;;;3.10;99.90;;;;;;5036187;28;20044;-65
2023/11/16 01:21:41;;;;;;;4.18;3.03;;;3.10;99.90;;;;;;5059188;28;20051;-62
2023/11/16 01:24:09;;;;;;;3.67;2.10;;;3.10;99.90;;;;;;5052353;28;20064;-60
2023/11/16 01:26:39;;;;;;;2.88;2.40;;;3.10;99.90;;;;;;5056754;28;20040;-67
2023/11/16 01:29:09;;;;;;;;;;;3.20;99.90;;;;;;5032324;28;20131;-61
2023/11/16 01:31:40;;;;;;;5.93;2.45;;;3.20;99.90;;;;;;5049557;28;20294;-61
2023/11/16 01:34:10;;;;;;;3.53;2.42;;;3.20;99.90;;;;;;5037567;28;20072;-60
2023/11/16 01:36:38;;;;;;;4.40;2.45;;;3.20;99.90;;;;;;5038515;28;20041;-65
2023/11/16 01:39:07;;;;;;;4.75;1.75;;;3.20;99.90;;;;;;5049492;28;20055;-60
2023/11/16 01:41:34;;;;;;;3.60;2.35;;;3.20;99.90;;;;;;5050470;28;20076;-60
2023/11/16 01:44:01;;;;;;;4.20;2.53;;;3.20;99.90;;;;;;5034553;28;20033;-60
2023/11/16 01:46:31;;;;;;;3.50;2.50;;;3.20;99.90;;;;;;5058191;28;20033;-62
2023/11/16 01:48:58;;;;;;;2.63;2.38;;;3.20;99.90;;;;;;5034593;28;20654;-65
2023/11/16 01:51:29;;;;;;;2.55;2.22;;;3.20;99.90;;;;;;5034843;28;20087;-64
2023/11/16 01:54:02;;;;;;;3.20;2.40;;;3.20;99.90;;;;;;5051878;28;20039;-60
2023/11/16 01:56:32;;;;;;;2.65;1.85;;;3.20;99.90;;;;;;5048707;28;20091;-64
2023/11/16 01:59:01;;;;;;;4.43;3.03;;;3.20;99.90;;;;;;5034998;28;20037;-62
2023/11/16 02:01:34;;;;;;;4.22;3.88;;;3.20;99.90;;;;;;5049649;28;20033;-61
2023/11/16 02:04:04;;;;;;;2.55;2.33;;;3.20;99.90;;;;;;5059303;28;20797;-61
2023/11/16 02:06:39;;;;;;;2.55;2.05;;;3.20;99.90;;;;;;5047517;28;20799;-63
2023/11/16 02:09:06;;;;;;;3.03;2.25;;;3.20;99.90;;;;;;5050426;28;20480;-60
2023/11/16 02:11:33;;;;;;;3.42;2.10;;;3.20;99.90;;;;;;5032988;28;20037;-60
2023/11/16 02:14:00;;;;;;;4.00;2.45;;;3.20;99.90;;;;;;5035357;28;20208;-61
2023/11/16 02:16:28;;;;;;;4.95;3.40;;;3.10;99.90;;;;;;5021035;28;20442;-59
2023/11/16 02:18:56;;;;;;;2.90;2.00;;;3.10;99.90;;;;;;5037806;28;20040;-60
2023/11/16 02:21:25;;;;;;;4.13;2.33;;;3.10;99.90;;;;;;5049239;28;20029;-60
2023/11/16 02:23:54;;;;;;;3.03;2.38;;;3.10;99.90;;;;;;5037944;28;20060;-63
2023/11/16 02:26:21;;;;;;;4.72;2.20;;;3.10;99.90;;;;;;5042198;28;20048;-60
2023/11/16 02:28:48;;;;;;;2.72;1.90;;;3.00;99.90;;;;;;5041438;28;20048;-67
2023/11/16 02:31:18;;;;;;;3.97;2.30;;;3.00;99.90;;;;;;5045495;28;20041;-62
2023/11/16 02:33:45;;;;;;;3.05;2.20;;;3.00;99.90;;;;;;5055183;28;20124;-60
2023/11/16 02:36:12;;;;;;;3.55;1.70;;;2.90;99.90;;;;;;5049344;28;20040;-62
2023/11/16 02:38:39;;;;;;;3.45;2.25;;;2.90;99.90;;;;;;5035619;28;20053;-64
2023/11/16 02:41:07;;;;;;;2.88;1.80;;;2.90;99.90;;;;;;5051437;28;20048;-60
2023/11/16 02:43:34;;;;;;;3.80;2.00;;;2.90;99.90;;;;;;5052175;28;20041;-62
2023/11/16 02:46:03;;;;;;;2.92;2.28;;;2.90;99.90;;;;;;5052377;28;20044;-60
2023/11/16 02:48:31;;;;;;;1.80;1.60;;;2.90;99.90;;;;;;5035199;28;20743;-62
2023/11/16 02:50:58;;;;;;;2.50;1.85;;;2.80;99.90;;;;;;5052155;28;20282;-60
2023/11/16 02:53:25;;;;;;;2.10;1.58;;;2.80;99.90;;;;;;5051735;28;20041;-62
2023/11/16 02:55:52;;;;;;;1.60;1.50;;;2.80;99.90;;;;;;5048981;28;20103;-62
2023/11/16 02:58:19;;;;;;;3.17;2.22;;;2.80;99.90;;;;;;5033813;28;20554;-66
2023/11/16 03:00:46;;;;;;;1.73;1.63;;;2.70;99.90;;;;;;5047257;28;20103;-60
2023/11/16 03:03:13;;;;;;;3.17;2.08;;;2.70;99.90;;;;;;5051483;28;20045;-60
2023/11/16 03:05:40;;;;;;;4.18;2.80;;;2.70;99.90;;;;;;5039906;28;20466;-61
2023/11/16 03:08:08;;;;;;;3.22;2.30;;;2.60;99.90;;;;;;5030314;28;20076;-64
2023/11/16 03:10:37;;;;;;;2.70;1.88;;;2.60;99.90;;;;;;5042358;28;20043;-69
2023/11/16 03:13:04;;;;;;;3.13;2.20;;;2.50;99.90;;;;;;5050069;28;20494;-64
2023/11/16 03:15:32;;;;;;;2.60;2.40;;;2.50;99.90;;;;;;5050163;28;20091;-62
2023/11/16 03:17:59;;;;;;;2.83;2.08;;;2.50;99.90;;;;;;5035252;28;20044;-60
2023/11/16 03:20:27;;;;;;;2.47;1.88;;;2.40;99.90;;;;;;5046564;28;20045;-61
2023/11/16 03:22:55;;;;;;;3.22;2.42;;;2.30;99.90;;;;;;5028434;28;20084;-60
2023/11/16 03:25:22;;;;;;;2.72;2.00;;;2.30;99.90;;;;;;5044953;28;20037;-62
2023/11/16 03:27:49;;;;;;;5.85;2.60;;;2.20;99.90;;;;;;5040716;28;20049;-63
2023/11/16 03:30:16;;;;;;;2.38;1.77;;;2.20;99.90;;;;;;5051317;28;20410;-61
2023/11/16 03:32:47;;;;;;;2.72;1.90;;;2.10;99.90;;;;;;5053716;28;20045;-60
2023/11/16 03:35:15;;;;;;;3.80;2.15;;;2.10;99.90;;;;;;5051445;28;20450;-64
2023/11/16 03:37:43;;;;;;;3.85;2.33;;;2.10;99.90;;;;;;5051163;28;20045;-63
2023/11/16 03:40:12;;;;;;;3.40;2.28;;;2.00;99.90;;;;;;5058284;28;20659;-64
2023/11/16 03:42:39;;;;;;;3.42;2.08;;;2.00;99.90;;;;;;5049806;28;20033;-62
2023/11/16 03:45:06;;;;;;;3.15;2.10;;;1.90;99.90;;;;;;5053219;28;20047;-60
2023/11/16 03:47:35;;;;;;;2.85;1.90;;;1.90;99.90;;;;;;5055846;28;20036;-61
2023/11/16 03:50:04;;;;;;;2.80;2.28;;;1.90;99.90;;;;;;5055743;28;20446;-60
2023/11/16 03:52:31;;;;;;;3.63;2.25;;;1.90;99.90;;;;;;5046642;28;20053;-62
2023/11/16 03:54:58;;;;;;;4.18;2.20;;;1.80;99.90;;;;;;5046352;28;20068;-60
2023/11/16 03:57:25;;;;;;;3.60;2.35;;;1.80;99.90;;;;;;5034105;28;20041;-61
2023/11/16 03:59:52;;;;;;;2.05;1.73;;;1.80;99.90;;;;;;5039565;28;20506;-61
2023/11/16 04:02:19;;;;;;;1.98;1.83;;;1.80;99.90;;;;;;5041461;28;20042;-59
2023/11/16 04:04:47;;;;;;;2.90;1.85;;;1.90;99.90;;;;;;5045532;28;20056;-60
2023/11/16 04:07:16;;;;;;;3.25;2.17;;;1.90;99.90;;;;;;5036708;28;20046;-60
2023/11/16 04:09:43;;;;;;;2.47;2.03;;;1.90;99.90;;;;;;5056163;28;20033;-63
2023/11/16 04:12:10;;;;;;;3.53;2.97;;;1.90;99.90;;;;;;5051816;28;20036;-61
2023/11/16 04:14:41;;;;;;;2.25;1.90;;;1.80;99.90;;;;;;5025643;28;20046;-60
2023/11/16 04:17:13;;;;;;;2.28;1.63;;;1.80;99.90;;;;;;5044537;28;20554;-60
2023/11/16 04:19:41;;;;;;;2.97;1.85;;;1.80;99.90;;;;;;5047646;28;20044;-64
2023/11/16 04:22:09;;;;;;;3.75;2.00;;;1.70;99.90;;;;;;5050847;28;20033;-63
2023/11/16 04:24:42;;;;;;;3.05;2.38;;;1.60;99.90;;;;;;5049998;28;19927;-69
2023/11/16 04:27:09;;;;;;;3.13;1.98;;;1.60;99.90;;;;;;5056385;28;20123;-63
2023/11/16 04:29:38;;;;;;;5.00;2.40;;;1.60;99.90;;;;;;5033356;28;20033;-63
2023/11/16 04:32:05;;;;;;;2.17;1.98;;;1.60;99.90;;;;;;5052023;28;20037;-66
2023/11/16 04:34:33;;;;;;;3.75;2.67;;;1.60;99.90;;;;;;5049348;28;20079;-60
2023/11/16 04:37:07;;;;;;;3.67;1.83;;;1.60;99.90;;;;;;5052762;28;20411;-60
2023/11/16 04:39:34;;;;;;;2.42;2.10;;;1.60;99.90;;;;;;5047794;28;20076;-60
2023/11/16 04:42:01;;;;;;;3.83;2.63;;;1.60;99.90;;;;;;5043893;28;20469;-60
2023/11/16 04:44:28;;;;;;;2.05;1.63;;;1.70;99.90;;;;;;5050521;28;20056;-60
2023/11/16 04:46:56;;;;;;;5.68;2.78;;;1.70;99.90;;;;;;5046183;28;20040;-69
2023/11/16 04:49:23;;;;;;;7.38;3.30;;;1.70;99.90;;;;;;5047836;28;20060;-61
2023/11/16 04:51:50;;;;;;;3.85;2.00;;;1.80;99.90;;;;;;5051291;28;20044;-60
2023/11/16 04:54:18;;;;;;;3.58;2.53;;;1.80;99.90;;;;;;5053240;28;20041;-61
2023/11/16 04:56:45;;;;;;;4.50;2.65;;;1.90;99.90;;;;;;5052114;28;20090;-62
2023/11/16 04:59:12;;;;;;;2.67;2.15;;;1.90;99.90;;;;;;5051851;28;20075;-61
2023/11/16 05:01:39;;;;;;;3.17;2.88;;;1.90;99.90;;;;;;5051005;28;20041;-64
2023/11/16 05:04:07;;;;;;;3.75;2.65;;;2.00;99.90;;;;;;5043685;28;20472;-61
2023/11/16 05:06:40;;;;;;;2.65;2.05;;;2.00;99.90;;;;;;5054997;28;20555;-64
2023/11/16 05:09:08;;;;;;;4.38;2.65;;;2.00;99.90;;;;;;5043744;28;20490;-61
2023/11/16 05:11:35;;;;;;;3.47;2.45;;;2.00;99.90;;;;;;5046293;28;20562;-61
2023/11/16 05:14:03;;;;;;;4.95;2.28;;;2.00;99.90;;;;;;5032568;28;20479;-63
2023/11/16 05:16:30;;;;;;;18.88;5.15;;;2.00;99.90;;;;;;5047066;28;20048;-60
2023/11/16 05:18:58;;;;;;;2.75;2.13;;;2.00;99.90;;;;;;5046598;28;20053;-60
2023/11/16 05:21:26;;;;;;;3.00;2.17;;;2.00;99.90;;;;;;5054058;28;20064;-63
2023/11/16 05:23:53;;;;;;;4.95;3.05;;;2.00;99.90;;;;;;5051855;28;20045;-62
2023/11/16 05:26:20;;;;;;;4.28;2.95;;;1.90;99.90;;;;;;5051134;28;20040;-61
2023/11/16 05:28:47;;;;;;;3.17;2.47;;;1.90;99.90;;;;;;5047565;28;20075;-60
2023/11/16 05:31:14;;;;;;;3.70;3.10;;;1.90;99.90;;;;;;5049716;28;20545;-61
2023/11/16 05:33:41;;;;;;;2.80;2.30;;;1.80;99.90;;;;;;5047758;28;20044;-61
2023/11/16 05:36:10;;;;;;;3.13;2.40;;;1.80;99.90;;;;;;5046252;28;20106;-62
2023/11/16 05:38:37;;;;;;;3.05;2.45;;;1.80;99.90;;;;;;5048643;28;20119;-64
2023/11/16 05:41:05;;;;;;;4.90;2.72;;;1.80;99.90;;;;;;5054656;28;20090;-61
2023/11/16 05:43:33;;;;;;;4.35;3.35;;;1.80;99.90;;;;;;5053270;28;20095;-60
2023/11/16 05:46:00;;;;;;;3.22;2.90;;;1.80;99.90;;;;;;5053492;28;20094;-59
2023/11/16 05:48:27;;;;;;;3.55;2.75;;;1.80;99.90;;;;;;5048349;28;20526;-64
2023/11/16 05:50:55;;;;;;;3.53;2.97;;;1.80;99.90;;;;;;5045677;28;20478;-61
2023/11/16 05:53:22;;;;;;;2.80;2.50;;;1.80;99.90;;;;;;5046665;28;20682;-61
2023/11/16 05:55:49;;;;;;;4.80;3.20;;;1.80;99.90;;;;;;5045110;28;20045;-60
2023/11/16 05:58:17;;;;;;;6.20;3.20;;;1.80;99.90;;;;;;5044089;28;20052;-59
2023/11/16 06:00:43;;;;;;;3.88;2.85;;;1.80;99.90;;;;;;5047305;28;20364;-60
2023/11/16 06:03:10;;;;;;;5.22;3.08;;;1.80;99.90;;;;;;5046962;28;20132;-66
2023/11/16 06:05:39;;;;;;;4.38;3.30;;;1.80;99.90;;;;;;5044275;28;20052;-60
2023/11/16 06:08:06;;;;;;;4.60;3.63;;;1.80;99.90;;;;;;5049633;28;20059;-60
2023/11/16 06:10:33;;;;;;;8.20;4.03;;;1.90;99.90;;;;;;5038822;28;20041;-62
2023/11/16 06:13:01;;;;;;;6.72;4.25;;;1.90;99.90;;;;;;5051160;28;20033;-61
2023/11/16 06:15:31;;;;;;;10.32;7.47;;;1.90;99.90;;;;;;5041846;28;20107;-59
2023/11/16 06:18:00;;;;;;;10.38;6.32;;;1.90;99.90;;;;;;5044626;28;20094;-59
2023/11/16 06:20:28;;;;;;;9.95;6.40;;;1.90;99.90;;;;;;5044627;28;20044;-60
2023/11/16 06:22:56;;;;;;;10.15;6.35;;;1.90;99.90;;;;;;5038283;28;20384;-61
2023/11/16 06:25:23;;;;;;;11.63;7.95;;;2.00;99.90;;;;;;5049038;28;20111;-60
2023/11/16 06:27:51;;;;;;;8.90;5.10;;;1.90;99.90;;;;;;5046092;28;20141;-60
2023/11/16 06:30:18;;;;;;;6.03;4.43;;;2.00;99.90;;;;;;5041869;28;20048;-62
2023/11/16 06:32:46;;;;;;;5.28;3.60;;;2.00;99.90;;;;;;5047654;28;20067;-61
2023/11/16 06:35:14;;;;;;;5.35;3.67;;;2.00;99.90;;;;;;5048449;28;20044;-60
2023/11/16 06:37:41;;;;;;;6.35;3.15;;;2.00;99.90;;;;;;5047060;28;20086;-64
2023/11/16 06:40:09;;;;;;;3.45;2.72;;;2.10;99.90;;;;;;5022862;28;20045;-66
2023/11/16 06:42:37;;;;;;;5.22;3.50;;;2.10;99.90;;;;;;5022940;28;20446;-69
2023/11/16 06:45:06;;;;;;;4.13;3.35;;;2.10;99.90;;;;;;5016592;28;20033;-60
2023/11/16 06:47:35;;;;;;;6.47;3.80;;;2.10;99.90;;;;;;5019737;28;20041;-69
2023/11/16 06:50:06;;;;;;;4.15;3.28;;;2.10;99.90;;;;;;5017024;28;20072;-65
2023/11/16 06:52:36;;;;;;;;;;;2.20;99.90;;;;;;5022703;28;20049;-60
2023/11/16 06:55:04;;;;;;;4.60;3.45;;;2.20;99.90;;;;;;5024119;28;20286;-61
2023/11/16 06:57:33;;;;;;;7.18;3.00;;;2.20;99.90;;;;;;5023023;28;20463;-70
2023/11/16 07:00:02;;;;;;;5.50;3.08;;;2.20;99.90;;;;;;5014656;28;20137;-69
2023/11/16 07:02:29;;;;;;;5.47;3.50;;;2.20;99.90;;;;;;5017042;28;20052;-69
2023/11/16 07:04:58;;;;;;;6.63;4.05;;;2.20;99.90;;;;;;5012228;28;20498;-69
2023/11/16 07:07:25;;;;;;;4.63;3.70;;;2.30;99.90;;;;;;5020322;28;20241;-67
2023/11/16 07:09:52;;;;;;;7.90;3.70;;;2.30;99.90;;;;;;5027861;28;20049;-69
2023/11/16 07:12:20;;;;;;;4.00;3.10;;;2.30;99.90;;;;;;5015159;28;20180;-61
2023/11/16 07:14:48;;;;;;;5.60;3.78;;;2.30;99.90;;;;;;5013819;28;20706;-70
2023/11/16 07:17:20;;;;;;;4.82;3.38;;;2.30;99.90;;;;;;5029146;28;20072;-70
2023/11/16 07:19:48;;;;;;;6.00;3.50;;;2.30;99.90;;;;;;5025215;28;20148;-67
2023/11/16 07:22:17;;;;;;;9.18;4.28;;;2.30;99.90;;;;;;5013079;28;20136;-60
2023/11/16 07:24:49;;;;;;;4.28;3.70;;;2.30;99.90;;;;;;5007320;28;20840;-66
2023/11/16 07:27:16;;;;;;;10.10;3.83;;;2.30;99.90;;;;;;5034186;28;20037;-60
2023/11/16 07:29:44;;;;;;;6.05;3.83;;;2.40;99.90;;;;;;5023168;28;20041;-67
2023/11/16 07:32:12;;;;;;;3.72;2.97;;;2.40;99.90;;;;;;5025772;28;20198;-62
2023/11/16 07:34:43;;;;;;;6.25;4.05;;;2.40;99.90;;;;;;5036049;28;20046;-70
2023/11/16 07:37:11;;;;;;;6.68;3.88;;;2.40;99.90;;;;;;5026674;28;20095;-69
2023/11/16 07:39:38;;;;;;;6.82;4.15;;;2.50;99.90;;;;;;5044160;28;20123;-62
2023/11/16 07:42:07;;;;;;;5.47;4.57;;;2.50;99.90;;;;;;5056759;28;20402;-60
2023/11/16 07:44:34;;;;;;;8.50;4.38;;;2.60;99.90;;;;;;5043175;28;20033;-60
2023/11/16 07:47:01;;;;;;;7.25;3.80;;;2.60;99.90;;;;;;5051928;28;20095;-63
2023/11/16 07:49:28;;;;;;;6.63;4.13;;;2.60;99.90;;;;;;5052941;28;20041;-62
2023/11/16 07:51:57;;;;;;;3.83;2.92;;;2.60;99.90;;;;;;5049923;28;20044;-60
2023/11/16 07:54:25;;;;;;;6.45;3.75;;;2.70;99.90;;;;;;5053039;28;20131;-60
2023/11/16 07:56:55;;;;;;;6.35;3.33;;;2.70;99.90;;;;;;5057135;28;20219;-60
2023/11/16 07:59:34;;;;;;;4.63;4.03;;;2.70;99.90;;;;;;5049581;28;20064;-64
2023/11/16 08:02:02;;;;;;;3.35;2.63;;;2.70;99.90;;;;;;5055350;28;20641;-62
2023/11/16 08:04:32;;;;;;;3.75;2.95;;;2.80;99.90;;;;;;5053489;28;20060;-62
2023/11/16 08:07:02;;;;;;;5.80;2.50;;;2.80;99.90;;;;;;5047794;28;20045;-61
2023/11/16 08:09:29;;;;;;;2.42;2.22;;;2.80;99.90;;;;;;5050831;28;21337;-61
2023/11/16 08:11:59;;;;;;;3.45;2.80;;;2.90;99.90;;;;;;5048617;28;20108;-62
2023/11/16 08:14:26;;;;;;;2.22;1.73;;;2.90;99.90;;;;;;5053972;28;20087;-60
2023/11/16 08:16:58;;;;;;;2.95;1.98;;;3.00;99.90;;;;;;5055769;28;20241;-60
2023/11/16 08:19:25;;;;;;;2.55;1.70;;;2.90;99.90;;;;;;5052021;28;20402;-59
2023/11/16 08:21:55;;;;;;;2.25;1.95;;;3.00;99.90;;;;;;5053813;28;20048;-60
2023/11/16 08:24:27;;;;;;;3.42;2.40;;;3.00;99.90;;;;;;5046984;28;20044;-60
2023/11/16 08:26:58;;;;;;;;;;;3.10;99.90;;;;;;5051389;28;20040;-60
2023/11/16 08:29:25;;;;;;;5.43;2.50;;;3.10;99.90;;;;;;5051324;28;19921;-59
2023/11/16 08:31:56;;;;;;;3.08;2.08;;;3.10;99.90;;;;;;5053156;28;20072;-60
2023/11/16 08:34:27;;;;;;;3.20;1.88;;;3.20;99.90;;;;;;5054353;28;20045;-63
2023/11/16 08:36:55;;;;;;;4.43;2.05;;;3.20;99.90;;;;;;5055368;28;20486;-65
2023/11/16 08:39:23;;;;;;;4.63;2.22;;;3.20;99.90;;;;;;5051782;28;20049;-62
2023/11/16 08:41:52;;;;;;;3.20;2.10;;;3.30;99.90;;;;;;5039357;28;20450;-62
2023/11/16 08:44:22;;;;;;;1.87;1.70;;;3.30;99.90;;;;;;5055076;28;20037;-63
2023/11/16 08:46:56;;;;;;;3.72;1.83;;;3.30;99.90;;;;;;5050260;28;20127;-61
2023/11/16 08:49:23;;;;;;;3.90;2.35;;;3.30;99.90;;;;;;5051568;28;20037;-60
2023/11/16 08:51:58;;;;;;;3.22;1.98;;;3.30;99.90;;;;;;5045267;28;20046;-63
2023/11/16 08:54:27;;;;;;;2.70;2.50;;;3.30;99.90;;;;;;5046873;28;20041;-60
2023/11/16 08:56:57;;;;;;;2.42;1.48;;;3.30;99.90;;;;;;5027010;28;20399;-60
2023/11/16 08:59:25;;;;;;;3.33;1.77;;;3.20;99.90;;;;;;5050084;28;20376;-62
2023/11/16 09:01:52;;;;;;;1.63;1.52;;;3.20;99.90;;;;;;5051488;28;20068;-62
2023/11/16 09:04:20;;;;;;;3.95;2.60;;;3.20;99.90;;;;;;5049959;28;20470;-60
2023/11/16 09:06:50;;;;;;;2.47;1.98;;;3.10;99.90;;;;;;5056354;28;20140;-60
2023/11/16 09:12:09;;;;;;;4.47;2.03;;;3.10;99.90;;;;;;5056775;28;20036;-62
2023/11/16 09:14:36;;;;;;;4.63;2.42;;;3.10;99.90;;;;;;5049691;28;20052;-59
2023/11/16 09:17:03;;;;;;;5.63;2.28;;;3.10;99.90;;;;;;5052592;28;20599;-59
2023/11/16 09:19:33;;;;;;;3.42;1.92;;;3.10;99.90;;;;;;5061896;28;20037;-61
2023/11/16 09:22:02;;;;;;;4.72;2.70;;;3.10;99.90;;;;;;5055075;28;20044;-61
2023/11/16 09:24:30;;;;;;;3.75;2.28;;;3.00;99.90;;;;;;5052580;28;20052;-59
2023/11/16 09:26:58;;;;;;;2.65;2.20;;;3.10;99.90;;;;;;5057584;28;20697;-60
2023/11/16 09:29:28;;;;;;;3.92;2.20;;;3.10;99.90;;;;;;5049813;28;20068;-60
2023/11/16 09:31:55;;;;;;;4.63;2.80;;;3.10;99.90;;;;;;5056723;28;20059;-62
2023/11/16 09:34:22;;;;;;;4.20;2.42;;;3.10;99.90;;;;;;5050664;28;20059;-62
2023/11/16 09:36:49;;;;;;;1.67;1.10;;;3.10;99.90;;;;;;5049810;28;20403;-60
2023/11/16 09:39:17;;;;;;;4.68;1.92;;;3.10;99.90;;;;;;5050268;28;20772;-60
2023/11/16 09:41:49;;;;;;;2.42;2.08;;;3.10;99.90;;;;;;5055092;28;20087;-62
2023/11/16 09:44:17;;;;;;;2.78;1.83;;;3.10;99.90;;;;;;5046931;28;20064;-60
2023/11/16 09:46:47;;;;;;;2.92;1.83;;;3.10;99.90;;;;;;5052792;28;20043;-59
2023/11/16 09:49:16;;;;;;;7.45;2.35;;;3.10;99.90;;;;;;5049469;28;20120;-60
2023/11/16 09:51:45;;;;;;;2.75;1.80;;;3.10;99.90;;;;;;5050515;28;20044;-61
2023/11/16 09:54:13;;;;;;;2.53;1.83;;;3.20;99.90;;;;;;5054948;28;20507;-61
2023/11/16 09:56:47;;;;;;;3.70;1.95;;;3.20;99.90;;;;;;5049752;28;20422;-59
2023/11/16 09:59:25;;;;;;;2.40;1.75;;;3.20;99.90;;;;;;5053085;28;20083;-60
2023/11/16 10:02:08;;;;;;;2.40;1.67;;;3.30;99.90;;;;;;5052615;28;20068;-62
2023/11/16 10:04:41;;;;;;;2.75;1.77;;;3.30;99.90;;;;;;5049011;28;20433;-59
2023/11/16 10:07:15;;;;;;;4.13;1.90;;;3.30;99.90;;;;;;5051490;28;21818;-62
2023/11/16 10:09:43;;;;;;;2.03;1.75;;;3.40;99.90;;;;;;5053504;28;20061;-62
2023/11/16 10:12:12;;;;;;;3.97;1.63;;;3.40;99.90;;;;;;5055775;28;20040;-59
2023/11/16 10:14:52;;;;;;;2.25;1.70;;;3.40;99.90;;;;;;5049969;28;20542;-60
2023/11/16 10:17:25;;;;;;;2.28;1.67;;;3.40;99.90;;;;;;5043319;28;20043;-59
2023/11/16 10:19:52;;;;;;;2.65;1.25;;;3.40;99.90;;;;;;5051492;28;20541;-60
2023/11/16 10:22:19;;;;;;;2.63;1.30;;;3.40;99.90;;;;;;5054800;28;20122;-61
2023/11/16 10:24:48;;;;;;;2.42;1.33;;;3.40;99.90;;;;;;5056227;28;20437;-60
2023/11/16 10:27:17;;;;;;;;;;;3.40;99.90;;;;;;5050246;28;20103;-64
2023/11/16 10:29:45;;;;;;;4.85;2.00;;;3.40;99.90;;;;;;5046816;28;19928;-64
2023/11/16 10:32:12;;;;;;;2.17;1.30;;;3.50;99.90;;;;;;5048072;28;20168;-62
2023/11/16 10:34:40;;;;;;;2.38;1.45;;;3.40;99.90;;;;;;5058245;28;20557;-66
2023/11/16 10:37:09;;;;;;;2.47;1.52;;;3.50;99.90;;;;;;5056123;28;20186;-60
2023/11/16 10:39:37;;;;;;;2.22;1.52;;;3.50;99.90;;;;;;5054541;28;20107;-59
2023/11/16 10:42:05;;;;;;;3.72;1.67;;;3.50;99.90;;;;;;5041409;28;20123;-65
2023/11/16 10:44:36;;;;;;;4.72;1.95;;;3.50;99.90;;;;;;5059305;28;20040;-62
2023/11/16 10:47:07;;;;;;;2.13;1.48;;;3.50;99.90;;;;;;5059012;28;20055;-63
2023/11/16 10:49:34;;;;;;;2.30;1.38;;;3.50;99.90;;;;;;5060682;28;20457;-60
2023/11/16 10:52:03;;;;;;;5.53;1.52;;;3.50;99.90;;;;;;5059881;28;20390;-63
2023/11/16 10:54:37;;;;;;;2.30;1.58;;;3.50;99.90;;;;;;5050405;28;20056;-60
2023/11/16 10:57:05;;;;;;;2.55;1.60;;;3.60;99.90;;;;;;5051528;28;20556;-60
2023/11/16 10:59:33;;;;;;;2.38;1.15;;;3.60;99.90;;;;;;5056459;28;20132;-61
2023/11/16 11:02:03;;;;;;;4.85;1.42;;;3.60;99.90;;;;;;5046189;28;20045;-62
2023/11/16 11:04:31;;;;;;;2.13;1.33;;;3.60;99.90;;;;;;5063715;28;20055;-59
2023/11/16 11:06:58;;;;;;;2.60;1.40;;;3.60;99.90;;;;;;5062825;28;20647;-60
2023/11/16 11:09:42;;;;;;;3.28;1.60;;;3.70;99.90;;;;;;5062798;28;20073;-60
2023/11/16 11:12:13;;;;;;;6.05;1.38;;;3.70;99.90;;;;;;5048811;28;20083;-63
2023/11/16 11:14:46;;;;;;;7.70;2.10;;;3.70;99.90;;;;;;5057968;28;20478;-64
2023/11/16 11:17:19;;;;;;;8.98;1.38;;;3.80;99.90;;;;;;5051982;28;20446;-59
2023/11/16 11:19:58;;;;;;;3.00;1.20;;;3.80;99.90;;;;;;5055555;28;20040;-62
2023/11/16 11:22:31;;;;;;;2.85;1.35;;;3.80;99.90;;;;;;5060303;28;20048;-60
2023/11/16 11:24:58;;;;;;;4.07;1.95;;;3.90;99.90;;;;;;5061180;28;20033;-60
2023/11/16 11:27:30;;;;;;;2.83;1.38;;;3.90;99.90;;;;;;5040094;28;20045;-62
2023/11/16 11:30:09;;;;;;;2.42;1.52;;;3.90;99.90;;;;;;5059108;28;20069;-62
2023/11/16 11:32:41;;;;;;;2.97;1.70;;;3.90;99.90;;;;;;5055912;28;20075;-62
2023/11/16 11:35:15;;;;;;;3.05;1.73;;;4.00;99.90;;;;;;5066916;28;20068;-60
2023/11/16 11:37:41;;;;;;;13.75;5.47;;;4.00;99.90;;;;;;5058135;28;20044;-63
2023/11/16 11:40:11;;;;;;;2.17;1.42;;;4.10;99.90;;;;;;5055366;28;20414;-59
2023/11/16 11:42:38;;;;;;;5.95;1.95;;;4.10;99.90;;;;;;5056259;28;20037;-62
2023/11/16 11:45:06;;;;;;;2.88;1.20;;;4.20;99.90;;;;;;5054633;28;20041;-63
2023/11/16 11:47:33;;;;;;;3.80;1.65;;;4.20;99.90;;;;;;5062387;28;20093;-60
2023/11/16 11:50:02;;;;;;;2.95;1.60;;;4.20;99.90;;;;;;5054898;28;20041;-62
2023/11/16 11:52:29;;;;;;;2.92;1.33;;;4.30;99.90;;;;;;5030703;28;20094;-63
2023/11/16 11:54:56;;;;;;;2.40;1.65;;;4.30;99.90;;;;;;5050193;28;20140;-60
2023/11/16 11:57:23;;;;;;;4.20;1.95;;;4.40;99.90;;;;;;5028820;28;20469;-62
2023/11/16 12:00:07;;;;;;;6.03;1.65;;;4.40;99.90;;;;;;5053901;28;20040;-60
2023/11/16 12:02:34;;;;;;;4.05;1.10;;;4.40;99.90;;;;;;5052231;28;20053;-60
2023/11/16 12:05:02;;;;;;;3.45;1.50;;;4.50;99.90;;;;;;5042785;28;20095;-60
2023/11/16 12:07:29;;;;;;;2.45;1.30;;;4.50;99.90;;;;;;5040900;28;20065;-62
2023/11/16 12:09:57;;;;;;;8.55;1.13;;;4.50;99.90;;;;;;5053577;28;20065;-67
2023/11/16 12:12:24;;;;;;;3.65;1.88;;;4.50;99.90;;;;;;5053405;28;20098;-64
2023/11/16 12:14:51;;;;;;;3.67;1.17;;;4.50;99.90;;;;;;5050666;28;20142;-60
2023/11/16 12:17:21;;;;;;;5.20;0.90;;;4.50;99.90;;;;;;5051872;28;20110;-60
2023/11/16 12:19:48;;;;;;;4.03;1.55;;;4.50;99.90;;;;;;5050878;28;20041;-64
2023/11/16 12:22:17;;;;;;;2.83;0.90;;;4.50;99.90;;;;;;5062312;28;20049;-62
2023/11/16 12:24:48;;;;;;;8.57;1.63;;;4.50;99.90;;;;;;5053285;28;20937;-59
2023/11/16 12:27:20;;;;;;;5.18;1.52;;;4.50;99.90;;;;;;5054824;28;20048;-61
2023/11/16 12:30:00;;;;;;;4.63;1.73;;;4.60;99.90;;;;;;5057622;28;20519;-60
2023/11/16 12:32:27;;;;;;;1.75;1.10;;;4.60;99.90;;;;;;5046662;28;21458;-62
2023/11/16 12:34:54;;;;;;;13.05;1.70;;;4.60;99.90;;;;;;5051895;28;20048;-62
2023/11/16 12:37:21;;;;;;;4.88;1.23;;;4.60;99.90;;;;;;5055867;28;20052;-60
2023/11/16 12:39:50;;;;;;;6.57;1.10;;;4.60;99.90;;;;;;5037735;28;20050;-62
2023/11/16 12:42:22;;;;;;;1.67;1.52;;;4.70;99.90;;;;;;5042189;28;20064;-62
2023/11/16 12:44:50;;;;;;;5.57;1.67;;;4.70;99.90;;;;;;5024976;28;20046;-61
2023/11/16 12:47:17;;;;;;;8.05;2.20;;;4.70;99.90;;;;;;5044457;28;20123;-62
2023/11/16 12:49:51;;;;;;;1.60;0.73;;;4.70;99.90;;;;;;5046381;28;20045;-60
2023/11/16 12:52:20;;;;;;;10.23;3.03;;;4.70;99.90;;;;;;5048964;28;20108;-60
2023/11/16 12:54:48;;;;;;;1.65;1.38;;;4.60;99.90;;;;;;5050434;28;20049;-59
2023/11/16 12:57:15;;;;;;;2.40;1.65;;;4.60;99.90;;;;;;5050412;28;20699;-61
2023/11/16 12:59:41;;;;;;;4.45;2.30;;;4.50;99.90;;;;;;5053680;28;20068;-62
2023/11/16 13:02:12;;;;;;;4.68;1.70;;;4.40;99.90;;;;;;5043726;28;20133;-65
2023/11/16 13:04:39;;;;;;;2.55;1.70;;;4.40;99.90;;;;;;5043753;28;20053;-64
2023/11/16 13:07:06;;;;;;;1.95;1.10;;;4.40;99.90;;;;;;5043739;28;20092;-61
2023/11/16 13:09:33;;;;;;;4.32;1.30;;;4.40;99.90;;;;;;5053076;28;20129;-60